createdAt,value
2018-08-18T00:01:21.810Z,15.17
2018-08-18T00:03:48.842Z,12.80
2018-08-18T00:06:15.815Z,13.10
2018-08-18T00:08:42.805Z,15.97
2018-08-18T00:11:09.824Z,13.70
2018-08-18T00:13:52.052Z,12.80
2018-08-18T00:16:24.439Z,12.20
2018-08-18T00:18:55.073Z,12.10
2018-08-18T00:21:22.151Z,13.43
2018-08-18T00:23:59.060Z,12.63
2018-08-18T00:26:26.454Z,11.37
2018-08-18T00:28:54.052Z,11.17
2018-08-18T00:31:21.086Z,10.23
2018-08-18T00:33:48.173Z,11.33
2018-08-18T00:36:15.172Z,12.03
2018-08-18T00:38:42.396Z,11.23
2018-08-18T00:41:09.480Z,11.17
2018-08-18T00:43:36.559Z,12.27
2018-08-18T00:46:03.943Z,12.13
2018-08-18T00:48:30.948Z,11.47
2018-08-18T00:50:57.935Z,10.70
2018-08-18T00:53:24.951Z,25.90
2018-08-18T00:55:51.952Z,11.07
2018-08-18T00:58:26.390Z,10.27
2018-08-18T01:00:59.170Z,9.13
2018-08-18T01:03:26.223Z,11.00
2018-08-18T01:05:54.068Z,12.27
2018-08-18T01:08:21.083Z,9.70
2018-08-18T01:10:48.151Z,12.00
2018-08-18T01:13:15.182Z,11.27
2018-08-18T01:15:42.235Z,12.73
2018-08-18T01:18:09.340Z,11.83
2018-08-18T01:20:36.369Z,11.03
2018-08-18T01:23:03.395Z,12.17
2018-08-18T01:25:30.425Z,10.53
2018-08-18T01:27:58.629Z,12.13
2018-08-18T01:30:25.652Z,10.77
2018-08-18T01:32:52.658Z,11.90
2018-08-18T01:35:19.659Z,13.30
2018-08-18T01:37:46.683Z,13.37
2018-08-18T01:40:13.744Z,11.37
2018-08-18T01:42:40.809Z,12.13
2018-08-18T01:45:07.812Z,14.93
2018-08-18T01:47:34.969Z,12.03
2018-08-18T01:50:07.588Z,11.67
2018-08-18T01:52:37.543Z,15.53
2018-08-18T01:55:06.041Z,11.77
2018-08-18T01:57:33.097Z,13.37
2018-08-18T02:00:04.676Z,14.40
2018-08-18T02:02:31.679Z,12.87
2018-08-18T02:05:06.895Z,13.47
2018-08-18T02:07:33.910Z,12.43
2018-08-18T02:10:00.980Z,12.50
2018-08-18T02:12:28.502Z,11.97
2018-08-18T02:14:55.725Z,11.90
2018-08-18T02:17:35.397Z,13.90
2018-08-18T02:20:02.642Z,15.20
2018-08-18T02:22:30.422Z,14.47
2018-08-18T02:24:57.639Z,15.07
2018-08-18T02:27:24.913Z,14.20
2018-08-18T02:30:04.240Z,15.47
2018-08-18T02:32:35.793Z,14.83
2018-08-18T02:35:03.153Z,14.30
2018-08-18T02:37:30.595Z,16.70
2018-08-18T02:39:57.597Z,16.17
2018-08-18T02:42:24.610Z,16.47
2018-08-18T02:44:51.959Z,16.60
2018-08-18T02:47:18.991Z,18.90
2018-08-18T02:49:46.957Z,17.73
2018-08-18T02:52:20.806Z,16.20
2018-08-18T02:54:52.193Z,16.70
2018-08-18T02:57:19.192Z,18.50
2018-08-18T02:59:46.275Z,17.63
2018-08-18T03:02:13.271Z,16.63
2018-08-18T03:04:46.076Z,16.90
2018-08-18T03:07:13.084Z,17.90
2018-08-18T03:09:40.124Z,19.23
2018-08-18T03:12:07.139Z,19.60
2018-08-18T03:14:34.137Z,14.77
2018-08-18T03:17:01.143Z,17.67
2018-08-18T03:19:28.135Z,17.90
2018-08-18T03:21:55.124Z,11.80
2018-08-18T03:24:23.268Z,12.77
2018-08-18T03:26:52.956Z,13.40
2018-08-18T03:29:21.114Z,16.07
2018-08-18T03:31:48.467Z,14.27
2018-08-18T03:34:15.827Z,16.13
2018-08-18T03:36:49.306Z,14.83
2018-08-18T03:39:23.883Z,17.17
2018-08-18T03:41:52.327Z,16.87
2018-08-18T03:44:19.468Z,17.70
2018-08-18T03:46:46.507Z,17.70
2018-08-18T03:49:13.519Z,19.70
2018-08-18T03:51:42.488Z,17.27
2018-08-18T03:54:09.512Z,18.30
2018-08-18T03:56:36.525Z,17.53
2018-08-18T03:59:03.584Z,17.57
2018-08-18T04:01:40.063Z,16.47
2018-08-18T04:04:08.023Z,21.67
2018-08-18T04:06:36.604Z,18.00
2018-08-18T04:09:11.275Z,17.70
2018-08-18T04:11:38.922Z,16.40
2018-08-18T04:14:06.006Z,12.30
2018-08-18T04:16:34.947Z,16.33
2018-08-18T04:19:03.654Z,19.70
2018-08-18T04:21:33.172Z,14.60
2018-08-18T04:24:00.152Z,12.27
2018-08-18T04:26:27.651Z,13.90
2018-08-18T04:28:55.306Z,10.93
2018-08-18T04:31:35.647Z,11.47
2018-08-18T04:34:03.937Z,13.13
2018-08-18T04:36:31.486Z,11.20
2018-08-18T04:38:58.569Z,11.40
2018-08-18T04:41:25.702Z,17.23
2018-08-18T04:43:52.798Z,55.70
2018-08-18T04:46:19.804Z,37.30
2018-08-18T04:48:46.789Z,44.10
2018-08-18T04:51:14.069Z,38.83
2018-08-18T04:53:41.068Z,35.80
2018-08-18T04:56:08.103Z,29.27
2018-08-18T04:58:35.064Z,13.50
2018-08-18T05:01:02.079Z,17.37
2018-08-18T05:03:30.003Z,24.60
2018-08-18T05:05:56.992Z,28.80
2018-08-18T05:08:23.990Z,17.80
2018-08-18T05:10:51.057Z,15.13
2018-08-18T05:13:18.187Z,12.97
2018-08-18T05:15:45.273Z,13.17
2018-08-18T05:18:12.253Z,14.27
2018-08-18T05:20:39.253Z,12.00
2018-08-18T05:23:20.935Z,11.67
2018-08-18T05:25:49.864Z,12.87
2018-08-18T05:28:16.914Z,13.03
2018-08-18T05:30:43.910Z,13.10
2018-08-18T05:33:10.980Z,11.73
2018-08-18T05:35:37.976Z,11.20
2018-08-18T05:38:05.065Z,12.37
2018-08-18T05:40:33.291Z,12.23
2018-08-18T05:43:00.546Z,15.00
2018-08-18T05:45:30.214Z,13.73
2018-08-18T05:47:57.238Z,12.97
2018-08-18T05:50:24.827Z,13.30
2018-08-18T05:52:59.928Z,14.60
2018-08-18T05:55:26.963Z,13.70
2018-08-18T05:57:53.967Z,15.27
2018-08-18T06:00:23.067Z,13.97
2018-08-18T06:02:55.704Z,15.63
2018-08-18T06:05:25.074Z,26.00
2018-08-18T06:07:52.061Z,16.70
2018-08-18T06:10:19.053Z,46.77
2018-08-18T06:12:46.354Z,21.20
2018-08-18T06:15:13.372Z,28.43
2018-08-18T06:17:40.863Z,16.70
2018-08-18T06:20:07.928Z,13.70
2018-08-18T06:22:35.368Z,14.50
2018-08-18T06:25:02.489Z,14.07
2018-08-18T06:27:29.575Z,13.83
2018-08-18T06:29:57.735Z,13.73
2018-08-18T06:32:24.867Z,11.83
2018-08-18T06:34:52.097Z,20.90
2018-08-18T06:37:19.595Z,14.00
2018-08-18T06:39:55.036Z,13.47
2018-08-18T06:42:34.669Z,14.67
2018-08-18T06:45:01.753Z,23.43
2018-08-18T06:47:28.766Z,14.53
2018-08-18T06:49:55.751Z,15.43
2018-08-18T06:52:23.115Z,12.60
2018-08-18T06:54:51.447Z,12.17
2018-08-18T06:57:30.271Z,11.87
2018-08-18T07:00:02.084Z,8.50
2018-08-18T07:02:29.087Z,13.27
2018-08-18T07:04:56.159Z,22.83
2018-08-18T07:07:26.075Z,31.23
2018-08-18T07:09:53.566Z,7.43
2018-08-18T07:12:20.544Z,5.70
2018-08-18T07:14:47.532Z,7.57
2018-08-18T07:17:16.140Z,10.10
2018-08-18T07:19:43.140Z,3.10
2018-08-18T07:22:14.251Z,6.90
2018-08-18T07:24:41.323Z,3.10
2018-08-18T07:27:08.362Z,2.30
2018-08-18T07:29:46.989Z,2.30
2018-08-18T07:32:14.857Z,11.93
2018-08-18T07:34:41.832Z,10.37
2018-08-18T07:37:09.361Z,11.90
2018-08-18T07:39:37.009Z,2.80
2018-08-18T07:42:04.041Z,2.33
2018-08-18T07:44:31.568Z,7.23
2018-08-18T07:46:58.618Z,8.23
2018-08-18T07:49:25.768Z,2.17
2018-08-18T07:51:52.951Z,3.50
2018-08-18T07:54:20.039Z,4.60
2018-08-18T07:56:47.197Z,5.53
2018-08-18T07:59:14.579Z,7.83
2018-08-18T08:01:41.567Z,5.47
2018-08-18T08:04:08.544Z,12.73
2018-08-18T08:06:35.746Z,3.13
2018-08-18T08:09:03.817Z,5.30
2018-08-18T08:14:58.789Z,7.70
2018-08-18T08:21:03.773Z,7.60
2018-08-18T08:23:31.013Z,4.60
2018-08-18T08:25:59.454Z,6.27
2018-08-18T08:28:26.792Z,5.90
2018-08-18T08:30:53.865Z,4.57
2018-08-18T08:33:34.695Z,6.33
2018-08-18T08:36:02.345Z,6.10
2018-08-18T08:38:41.125Z,5.63
2018-08-18T08:41:14.983Z,12.80
2018-08-18T08:43:41.988Z,13.40
2018-08-18T08:46:09.132Z,8.90
2018-08-18T08:48:36.209Z,5.70
2018-08-18T08:51:03.671Z,4.50
2018-08-18T08:53:31.015Z,3.83
2018-08-18T08:55:58.011Z,4.27
2018-08-18T08:58:25.243Z,11.83
2018-08-18T09:00:52.311Z,8.00
2018-08-18T09:03:19.307Z,3.80
2018-08-18T09:05:46.484Z,5.40
2018-08-18T09:08:13.501Z,17.10
2018-08-18T09:10:40.573Z,19.37
2018-08-18T09:13:07.695Z,11.47
2018-08-18T09:15:34.790Z,10.00
2018-08-18T09:18:01.784Z,7.43
2018-08-18T09:20:33.397Z,10.30
2018-08-18T09:23:01.572Z,8.23
2018-08-18T09:25:31.200Z,7.30
2018-08-18T09:28:00.682Z,3.97
2018-08-18T09:30:29.031Z,7.40
2018-08-18T09:32:59.735Z,4.10
2018-08-18T09:35:26.739Z,17.37
2018-08-18T09:37:57.565Z,4.60
2018-08-18T09:40:25.431Z,8.70
2018-08-18T09:42:52.411Z,7.00
2018-08-18T09:45:19.539Z,7.20
2018-08-18T09:47:46.556Z,3.50
2018-08-18T09:50:13.583Z,4.57
2018-08-18T09:52:40.652Z,7.00
2018-08-18T09:55:07.772Z,5.00
2018-08-18T09:57:34.845Z,9.27
2018-08-18T10:00:01.870Z,4.63
2018-08-18T10:02:28.995Z,4.40
2018-08-18T10:04:55.988Z,5.93
2018-08-18T10:07:23.164Z,4.60
2018-08-18T10:09:50.636Z,4.00
2018-08-18T10:12:17.663Z,3.70
2018-08-18T10:14:44.670Z,4.70
2018-08-18T10:17:11.755Z,3.47
2018-08-18T10:19:39.088Z,3.17
2018-08-18T10:22:06.172Z,2.50
2018-08-18T10:24:33.289Z,2.70
2018-08-18T10:27:03.515Z,2.40
2018-08-18T10:29:30.500Z,2.90
2018-08-18T10:31:58.327Z,3.50
2018-08-18T10:34:26.721Z,3.80
2018-08-18T10:36:55.211Z,3.60
2018-08-18T10:39:22.228Z,2.13
2018-08-18T10:41:59.026Z,2.70
2018-08-18T10:44:26.133Z,2.70
2018-08-18T10:47:07.631Z,4.00
2018-08-18T10:49:46.276Z,3.60
2018-08-18T10:52:25.593Z,3.80
2018-08-18T10:54:52.640Z,2.97
2018-08-18T10:57:31.476Z,2.20
2018-08-18T10:59:59.235Z,2.70
2018-08-18T11:02:32.431Z,2.87
2018-08-18T11:04:59.668Z,1.80
2018-08-18T11:07:26.844Z,2.77
2018-08-18T11:09:53.929Z,2.10
2018-08-18T11:12:20.959Z,3.30
2018-08-18T11:14:54.431Z,2.27
2018-08-18T11:17:21.612Z,1.60
2018-08-18T11:19:48.695Z,2.50
2018-08-18T11:23:01.760Z,2.20
2018-08-18T11:25:33.906Z,2.13
2018-08-18T11:28:01.276Z,2.33
2018-08-18T11:30:28.719Z,2.80
2018-08-18T11:32:56.803Z,2.20
2018-08-18T11:35:23.899Z,1.90
2018-08-18T11:38:11.597Z,1.73
2018-08-18T11:40:38.684Z,2.70
2018-08-18T11:43:06.908Z,2.50
2018-08-18T11:45:35.061Z,2.30
2018-08-18T11:48:18.797Z,1.90
2018-08-18T11:50:46.379Z,1.70
2018-08-18T11:53:13.604Z,2.00
2018-08-18T11:55:40.810Z,2.70
2018-08-18T11:58:09.958Z,2.03
2018-08-18T12:01:08.678Z,1.90
2018-08-18T12:03:35.653Z,1.60
2018-08-18T12:06:03.859Z,1.13
2018-08-18T12:08:32.239Z,1.53
2018-08-18T12:11:00.787Z,1.63
2018-08-18T12:13:33.420Z,1.60
2018-08-18T12:16:08.888Z,1.60
2018-08-18T12:18:37.479Z,1.77
2018-08-18T12:21:04.901Z,2.10
2018-08-18T12:23:35.123Z,1.43
2018-08-18T12:26:15.152Z,1.80
2018-08-18T12:28:43.245Z,1.90
2018-08-18T12:31:16.221Z,2.27
2018-08-18T12:33:43.573Z,1.80
2018-08-18T12:36:10.699Z,1.93
2018-08-18T12:38:41.048Z,2.40
2018-08-18T12:41:08.320Z,1.73
2018-08-18T12:46:35.184Z,1.53
2018-08-18T12:49:03.635Z,1.50
2018-08-18T12:51:30.616Z,1.70
2018-08-18T12:53:57.651Z,1.63
2018-08-18T12:56:26.639Z,1.93
2018-08-18T12:58:53.661Z,1.63
2018-08-18T13:01:37.408Z,1.97
2018-08-18T13:04:06.701Z,2.00
2018-08-18T13:06:51.131Z,1.60
2018-08-18T13:09:20.260Z,1.90
2018-08-18T13:11:48.444Z,1.50
2018-08-18T13:14:17.849Z,2.60
2018-08-18T13:16:44.876Z,1.87
2018-08-18T13:19:13.879Z,1.47
2018-08-18T13:21:40.861Z,1.63
2018-08-18T13:24:07.892Z,1.40
2018-08-18T13:26:34.985Z,2.00
2018-08-18T13:29:08.661Z,1.40
2018-08-18T13:31:38.024Z,2.43
2018-08-18T13:34:06.112Z,1.80
2018-08-18T13:36:33.635Z,1.30
2018-08-18T13:39:00.647Z,1.63
2018-08-18T13:41:27.750Z,1.40
2018-08-18T13:43:54.799Z,1.80
2018-08-18T13:46:33.626Z,1.77
2018-08-18T13:49:03.332Z,1.80
2018-08-18T13:51:31.111Z,1.43
2018-08-18T13:54:00.189Z,2.23
2018-08-18T13:56:27.423Z,1.90
2018-08-18T13:58:55.407Z,2.40
2018-08-18T14:01:32.625Z,1.87
2018-08-18T14:03:59.678Z,2.53
2018-08-18T14:06:26.791Z,1.90
2018-08-18T14:08:57.769Z,10.13
2018-08-18T14:11:25.612Z,1.87
2018-08-18T14:13:52.683Z,2.73
2018-08-18T14:16:19.684Z,1.73
2018-08-18T14:18:46.676Z,1.80
2018-08-18T14:21:13.828Z,1.17
2018-08-18T14:23:40.853Z,2.33
2018-08-18T14:26:08.178Z,2.30
2018-08-18T14:28:35.386Z,1.97
2018-08-18T14:31:02.367Z,4.63
2018-08-18T14:33:30.030Z,7.87
2018-08-18T14:36:02.764Z,1.67
2018-08-18T14:38:29.840Z,1.93
2018-08-18T14:40:56.876Z,1.83
2018-08-18T14:43:28.466Z,3.07
2018-08-18T14:45:56.051Z,1.67
2018-08-18T14:48:23.060Z,2.27
2018-08-18T14:50:50.076Z,2.13
2018-08-18T14:53:22.980Z,2.70
2018-08-18T14:55:49.990Z,1.87
2018-08-18T14:58:21.631Z,1.60
2018-08-18T15:00:49.916Z,2.27
2018-08-18T15:03:17.040Z,2.80
2018-08-18T15:05:44.147Z,6.60
2018-08-18T15:08:11.211Z,2.10
2018-08-18T15:10:40.562Z,2.03
2018-08-18T15:13:08.341Z,3.50
2018-08-18T15:15:35.856Z,2.20
2018-08-18T15:18:06.443Z,1.87
2018-08-18T15:20:35.801Z,2.30
2018-08-18T15:23:03.739Z,1.60
2018-08-18T15:25:31.821Z,1.70
2018-08-18T15:28:02.476Z,1.93
2018-08-18T15:30:29.464Z,2.17
2018-08-18T15:32:56.555Z,2.00
2018-08-18T15:35:24.849Z,2.20
2018-08-18T15:37:51.852Z,2.10
2018-08-18T15:40:18.867Z,2.53
2018-08-18T15:42:45.915Z,1.80
2018-08-18T15:45:13.009Z,1.67
2018-08-18T15:47:39.993Z,1.70
2018-08-18T15:50:07.002Z,2.17
2018-08-18T15:52:34.467Z,2.50
2018-08-18T15:55:02.840Z,2.40
2018-08-18T15:57:29.975Z,2.30
2018-08-18T15:59:57.094Z,1.80
2018-08-18T16:02:24.131Z,1.70
2018-08-18T16:04:51.127Z,2.33
2018-08-18T16:07:18.143Z,2.40
2018-08-18T16:09:45.431Z,2.60
2018-08-18T16:12:12.567Z,1.90
2018-08-18T16:14:39.637Z,1.93
2018-08-18T16:17:06.768Z,3.60
2018-08-18T16:19:34.735Z,2.97
2018-08-18T16:22:02.248Z,2.40
2018-08-18T16:24:31.491Z,2.87
2018-08-18T16:26:59.199Z,2.80
2018-08-18T16:29:26.407Z,4.83
2018-08-18T16:32:08.311Z,3.97
2018-08-18T16:34:35.308Z,2.60
2018-08-18T16:37:02.295Z,1.70
2018-08-18T16:39:29.273Z,2.20
2018-08-18T16:41:56.264Z,2.87
2018-08-18T16:44:23.244Z,3.13
2018-08-18T16:46:50.232Z,2.70
2018-08-18T16:49:17.246Z,2.13
2018-08-18T16:51:44.290Z,3.50
2018-08-18T16:54:20.048Z,1.67
2018-08-18T16:56:47.998Z,1.87
2018-08-18T16:59:20.104Z,1.73
2018-08-18T17:09:19.083Z,6.67
2018-08-18T17:19:10.383Z,13.70
2018-08-18T17:26:46.911Z,3.53
2018-08-18T17:30:37.681Z,2.90
2018-08-18T17:33:05.412Z,4.03
2018-08-18T17:35:32.536Z,33.83
2018-08-18T17:56:47.416Z,4.73
2018-08-18T18:07:43.348Z,9.10
2018-08-18T18:10:10.643Z,4.90
2018-08-18T18:12:37.980Z,7.10
2018-08-18T18:15:39.318Z,7.07
2018-08-18T18:18:13.306Z,3.73
2018-08-18T18:20:41.409Z,9.07
2018-08-18T18:23:10.444Z,3.60
2018-08-18T18:25:37.924Z,3.43
2018-08-18T18:28:05.177Z,7.37
2018-08-18T18:30:32.417Z,12.30
2018-08-18T18:32:59.843Z,3.30
2018-08-18T18:35:27.017Z,11.60
2018-08-18T18:37:59.807Z,25.90
2018-08-18T18:40:27.183Z,14.33
2018-08-18T18:42:54.563Z,12.00
2018-08-18T18:45:23.561Z,4.83
2018-08-18T18:47:50.628Z,16.47
2018-08-18T18:50:19.021Z,14.00
2018-08-18T18:52:46.615Z,3.40
2018-08-18T18:55:13.930Z,6.77
2018-08-18T18:57:58.744Z,4.23
2018-08-18T19:00:26.148Z,11.80
2018-08-18T19:02:53.648Z,3.23
2018-08-18T19:05:25.051Z,7.57
2018-08-18T19:08:03.576Z,6.17
2018-08-18T19:10:30.812Z,5.17
2018-08-18T19:12:58.348Z,7.30
2018-08-18T19:15:26.829Z,5.93
2018-08-18T19:17:54.125Z,4.80
2018-08-18T19:20:22.890Z,4.30
2018-08-18T19:22:51.268Z,10.73
2018-08-18T19:25:18.324Z,66.30
2018-08-18T19:27:45.388Z,6.67
2018-08-18T19:30:12.400Z,5.63
2018-08-18T19:32:39.962Z,7.10
2018-08-18T19:35:07.866Z,15.23
2018-08-18T19:37:39.480Z,7.30
2018-08-18T19:40:06.722Z,9.33
2018-08-18T19:42:34.096Z,3.60
2018-08-18T19:45:01.351Z,7.60
2018-08-18T19:47:35.442Z,6.77
2018-08-18T19:50:02.999Z,17.63
2018-08-18T19:52:30.351Z,17.60
2018-08-18T19:54:57.769Z,5.30
2018-08-18T19:57:30.738Z,8.70
2018-08-18T20:00:05.585Z,8.37
2018-08-18T20:03:11.994Z,35.33
2018-08-18T20:05:39.236Z,7.33
2018-08-18T20:08:06.912Z,3.40
2018-08-18T20:10:44.035Z,4.73
2018-08-18T20:13:12.128Z,3.60
2018-08-18T20:15:39.748Z,3.97
2018-08-18T20:18:06.774Z,5.03
2018-08-18T20:20:34.132Z,6.80
2018-08-18T20:23:01.151Z,43.43
2018-08-18T20:25:28.375Z,14.73
2018-08-18T20:27:55.484Z,4.37
2018-08-18T20:30:22.575Z,10.23
2018-08-18T20:32:49.886Z,12.10
2018-08-18T20:35:16.875Z,8.17
2018-08-18T20:37:43.867Z,10.93
2018-08-18T20:40:11.268Z,4.30
2018-08-18T20:42:40.953Z,8.10
2018-08-18T20:45:09.260Z,27.70
2018-08-18T20:47:36.984Z,15.83
2018-08-18T20:50:06.140Z,6.07
2018-08-18T20:52:33.540Z,25.13
2018-08-18T20:55:01.144Z,8.70
2018-08-18T20:57:28.136Z,8.63
2018-08-18T20:59:55.199Z,10.20
2018-08-18T21:02:22.386Z,11.77
2018-08-18T21:04:54.408Z,13.93
2018-08-18T21:07:22.127Z,5.80
2018-08-18T21:09:49.494Z,13.83
2018-08-18T21:12:16.476Z,8.00
2018-08-18T21:14:43.555Z,6.57
2018-08-18T21:17:10.555Z,5.93
2018-08-18T21:19:37.554Z,6.17
2018-08-18T21:22:04.608Z,9.00
2018-08-18T21:24:31.839Z,9.50
2018-08-18T21:26:59.425Z,6.50
2018-08-18T21:29:27.171Z,5.47
2018-08-18T21:31:56.192Z,5.90
2018-08-18T21:34:24.543Z,7.40
2018-08-18T21:36:54.696Z,6.30
2018-08-18T21:39:21.748Z,8.70
2018-08-18T21:41:49.112Z,35.30
2018-08-18T21:44:16.431Z,7.00
2018-08-18T21:46:43.721Z,11.97
2018-08-18T21:49:11.632Z,10.10
2018-08-18T21:51:38.807Z,6.33
2018-08-18T21:54:06.391Z,10.17
2018-08-18T21:56:35.315Z,7.53
2018-08-18T21:59:07.238Z,12.90
2018-08-18T22:01:34.787Z,11.37
2018-08-18T22:04:02.000Z,8.27
2018-08-18T22:06:29.220Z,14.90
2018-08-18T22:09:13.591Z,6.80
2018-08-18T22:11:41.040Z,7.70
2018-08-18T22:14:12.338Z,9.53
2018-08-18T22:16:44.333Z,9.37
2018-08-18T22:19:11.768Z,9.20
2018-08-18T22:21:39.055Z,8.27
2018-08-18T22:24:06.296Z,7.47
2018-08-18T22:26:34.512Z,7.93
2018-08-18T22:29:02.827Z,7.67
2018-08-18T22:31:30.579Z,10.90
2018-08-18T22:33:58.549Z,11.47
2018-08-18T22:36:27.732Z,8.10
2018-08-18T22:38:55.851Z,9.30
2018-08-18T22:41:23.226Z,9.07
2018-08-18T22:43:50.470Z,8.53
2018-08-18T22:46:17.839Z,9.50
2018-08-18T22:48:45.893Z,9.03
2018-08-18T22:51:13.219Z,12.23
2018-08-18T22:53:43.189Z,8.43
2018-08-18T22:56:10.186Z,15.30
2018-08-18T22:58:37.238Z,13.20
2018-08-18T23:01:04.307Z,10.90
2018-08-18T23:03:31.579Z,10.17
2018-08-18T23:05:59.075Z,10.00
2018-08-18T23:08:26.572Z,11.57
2018-08-18T23:10:53.674Z,10.00
2018-08-18T23:13:20.887Z,13.20
2018-08-18T23:15:47.915Z,9.57
2018-08-18T23:18:15.247Z,11.60
2018-08-18T23:20:42.238Z,11.13
2018-08-18T23:23:09.215Z,11.93
2018-08-18T23:25:36.412Z,11.60
2018-08-18T23:28:03.408Z,11.23
2018-08-18T23:30:35.475Z,11.83
2018-08-18T23:33:04.272Z,11.13
2018-08-18T23:35:31.336Z,12.00
2018-08-18T23:37:58.559Z,11.47
2018-08-18T23:40:25.803Z,12.70
2018-08-18T23:42:53.091Z,12.23
2018-08-18T23:45:20.218Z,13.40
2018-08-18T23:47:54.722Z,11.57
2018-08-18T23:50:21.808Z,12.60
2018-08-18T23:52:56.347Z,12.33
2018-08-18T23:55:23.463Z,12.20
2018-08-18T23:57:50.851Z,13.30
